Flight Track Log - Related Links

Times and Time Zones

All times are in EDT time to prevent confusion due to time zone crossing. See the USC110 flight status page for this flight to view local times or setup timezone preferences in your user account.

Time Position Orientation Groundspeed Altitude Reporting Facility
EDT Latitude Longitude Course Direction KTS MPH feet Rate Location/Type
Tue 05:27:09 AM 39.8178 -82.9269 71° East 68 78 1,000  Level Indianapolis Center
Tue 05:28:22 AM 39.8275 -82.8903 71° East 130 150 1,700 796 Climbing Indianapolis Center
Tue 05:29:02 AM 39.8039 -82.8789 160° South 129 148 2,500 1,010 Climbing Indianapolis Center
Tue 05:30:03 AM 39.7736 -82.8706 168° South 116 133 3,400 934 Climbing Indianapolis Center
Tue 05:31:04 AM 39.7417 -82.8617 168° South 115 132 4,400 992 Climbing Indianapolis Center
Tue 05:32:04 AM 39.7097 -82.8514 166° South 117 135 5,400 893 Climbing Indianapolis Center
Tue 05:33:05 AM 39.6839 -82.8414 163° South 115 132 6,200 836 Climbing Indianapolis Center
Tue 05:34:06 AM 39.6506 -82.8314 167° South 120 138 7,100 893 Climbing Indianapolis Center
Tue 05:35:06 AM 39.6167 -82.8208 167° South 123 142 8,000 843 Climbing Indianapolis Center
Tue 05:36:07 AM 39.5831 -82.8108 167° South 123 142 8,800 492 Climbing Indianapolis Center
Tue 05:37:08 AM 39.5436 -82.7972 165° South 142 163 9,000 149 Climbing Indianapolis Center
Tue 05:38:08 AM 39.4956 -82.7822 166° South 172 198 9,100  Climbing Indianapolis Center
Tue 05:39:09 AM 39.4469 -82.7678 167° South 176 203 9,000 -49 Descending Indianapolis Center
Tue 05:40:10 AM 39.3992 -82.7519 166° South 175 201 9,000  Level Indianapolis Center
Tue 05:41:10 AM 39.3531 -82.7358 165° South 176 203 9,000  Level Indianapolis Center
Tue 05:42:11 AM 39.3028 -82.7189 165° South 178 205 9,000  Level Indianapolis Center
Tue 05:43:11 AM 39.2544 -82.7047 167° South 177 204 9,000  Level Indianapolis Center
Tue 05:44:12 AM 39.2064 -82.6883 165° South 176 203 9,000  Level Indianapolis Center
Tue 05:45:13 AM 39.1522 -82.6708 166° South 176 203 9,000  Level Indianapolis Center
Tue 05:46:13 AM 39.1047 -82.6547 165° South 176 203 9,000  Level Indianapolis Center
Tue 05:47:14 AM 39.0564 -82.6414 168° South 178 205 9,000  Level Indianapolis Center
Tue 05:48:14 AM 39.0094 -82.6261 166° South 175 201 9,000  Level Indianapolis Center
Tue 05:49:15 AM 38.9617 -82.6097 165° South 177 204 9,000 -443 Level Indianapolis Center
Tue 05:50:16 AM 38.9100 -82.5928 166° South 189 217 8,100 -496 Descending Indianapolis Center
Tue 05:51:16 AM 38.8575 -82.5767 167° South 191 220 8,000 -50 Descending Indianapolis Center
Tue 05:52:17 AM 38.8106 -82.5622 167° South 176 203 8,000  Level Indianapolis Center
Tue 05:53:17 AM 38.7639 -82.5464 165° South 174 200 8,000  Level Indianapolis Center
Tue 05:54:18 AM 38.7164 -82.5306 165° South 175 201 8,000  Level Indianapolis Center
Tue 05:55:19 AM 38.6697 -82.5167 167° South 174 200 8,000 248 Level Indianapolis Center
Tue 05:56:19 AM 38.6244 -82.5031 167° South 171 197 8,500 496 Climbing Indianapolis Center
Tue 05:57:20 AM 38.5931 -82.4881 160° South 128 147 9,000 298 Climbing Indianapolis Center
Tue 05:58:20 AM 38.5500 -82.4761 168° South 149 171 9,100  Climbing Indianapolis Center
Tue 05:59:21 AM 38.5033 -82.4622 167° South 165 190 9,000 -49 Descending Indianapolis Center
Tue 06:00:22 AM 38.4544 -82.4483 167° South 175 201 9,000  Level Indianapolis Center
Tue 06:01:22 AM 38.4069 -82.4328 166° South 176 203 9,000  Level Indianapolis Center
Tue 06:02:23 AM 38.3592 -82.4169 165° South 176 203 9,000  Level Indianapolis Center
Tue 06:03:23 AM 38.3106 -82.4025 167° South 179 206 9,000  Level Indianapolis Center
Tue 06:04:24 AM 38.2622 -82.3869 166° South 177 204 9,000  Level Indianapolis Center
Tue 06:05:25 AM 38.2056 -82.3703 167° South 177 204 9,000  Level Indianapolis Center
Tue 06:06:25 AM 38.1569 -82.3553 166° South 179 206 9,000  Level Indianapolis Center
Tue 06:07:26 AM 38.1083 -82.3392 165° South 180 207 9,000  Level Indianapolis Center
Tue 06:08:27 AM 38.0597 -82.3247 167° South 180 207 9,000  Level Indianapolis Center
Tue 06:09:27 AM 38.0108 -82.3100 167° South 180 207 9,000  Level Indianapolis Center
Tue 06:10:28 AM 37.9614 -82.2947 166° South 182 209 9,000  Level Indianapolis Center
Tue 06:11:29 AM 37.9128 -82.2794 166° South 180 207 9,000  Level Indianapolis Center
Tue 06:12:29 AM 37.8658 -82.2644 166° South 176 203 9,000  Level Indianapolis Center
Tue 06:13:30 AM 37.8172 -82.2506 167° South 177 204 9,000  Level Indianapolis Center
Tue 06:14:31 AM 37.7683 -82.2350 166° South 179 206 9,000  Level Indianapolis Center
Tue 06:15:31 AM 37.7183 -82.2197 166° South 182 209 9,000  Level Indianapolis Center
Tue 06:16:32 AM 37.6700 -82.2050 166° South 180 207 9,000  Level Indianapolis Center
Tue 06:17:32 AM 37.6200 -82.1883 165° South 182 209 9,000  Level Indianapolis Center
Tue 06:18:33 AM 37.5711 -82.1742 167° South 181 208 9,000  Level Indianapolis Center
Tue 06:19:34 AM 37.5219 -82.1583 166° South 181 208 9,000  Level Indianapolis Center
Tue 06:20:34 AM 37.4722 -82.1436 167° South 183 211 9,000 50 Level Indianapolis Center
Tue 06:21:35 AM 37.4233 -82.1283 166° South 181 208 9,100  Climbing Indianapolis Center
Tue 06:22:36 AM 37.3772 -82.1017 155° Southeast 183 211 9,000  Descending Indianapolis Center
Tue 06:23:36 AM 37.3286 -82.0800 160° South 185 213 9,100  Climbing Indianapolis Center
Tue 06:24:37 AM 37.2792 -82.0694 170° South 182 209 9,000 -49 Descending Indianapolis Center
Tue 06:25:38 AM 37.2297 -82.0542 166° South 182 209 9,000  Level Indianapolis Center
Tue 06:26:38 AM 37.1728 -82.0369 166° South 180 207 9,000  Level Indianapolis Center
Tue 06:27:39 AM 37.1228 -82.0225 167° South 182 209 9,000  Level Indianapolis Center
Tue 06:28:40 AM 37.0731 -82.0081 167° South 182 209 9,000  Level Indianapolis Center
Tue 06:29:40 AM 37.0239 -81.9925 166° South 181 208 9,000  Level Indianapolis Center
Tue 06:30:41 AM 36.9739 -81.9792 168° South 183 211 9,000  Level Indianapolis Center
Tue 06:31:42 AM 36.9250 -81.9650 167° South 180 207 9,000  Level Indianapolis Center
Tue 06:32:42 AM 36.8750 -81.9508 167° South 183 211 9,000  Level Indianapolis Center
Tue 06:33:43 AM 36.8258 -81.9378 168° South 181 208 9,000  Level Indianapolis Center
Tue 06:34:44 AM 36.7764 -81.9217 165° South 182 209 9,000  Level Indianapolis Center
Tue 06:35:54 AM 36.7156 -81.9075 169° South 185 213 9,000  Level Atlanta Center
Tue 06:36:54 AM 36.6653 -81.8933 167° South 185 213 9,000  Level Atlanta Center
Tue 06:37:54 AM 36.6150 -81.8792 167° South 185 213 9,000  Level Atlanta Center
Tue 06:38:54 AM 36.5667 -81.8650 167° South 185 213 9,000  Level Atlanta Center
Tue 06:39:54 AM 36.5142 -81.8483 166° South 185 213 9,000  Level Atlanta Center

Login

Don't have an account? Register now (free) for customized features, flight alerts, and more!